Macel, Mississippi
Current Conditions -  °F | °C
As of 1:53 AM on Friday 19 Dec 2014 (Local Time) from KGWO Reporting Station
Overcast Overcast  
Wind Chill: 47°   Ceiling: 3900
Heat Index: 47°   Visibility: 10mi
Dew Point: 40°   Wind: 0mph
Humidity: 77%   Direction: NA
Pressure: 30.2"   Gusts: NA
Location:  33.7588°N, 90.1752°W
Report Text: KGWO 190753Z AUTO 00000KT 10SM OVC039 08/04 A3020 RMK AO2 SLP224 T00830044
Loading
Personal Weather Stations






























Interactive Weather Map New forecast layout! Learn more

10-Day Weather Forecast

Advertisements
Track Severe Weather on mobile